Holly, Michigan
Current Conditions -  °F | °C
As of 10:53 AM on Sunday 25 Jan 2015 (Local Time) from KFNT Reporting Station
Overcast Overcast  
Wind Chill: 11°   Ceiling: 2300
Heat Index: 24°   Visibility: 10mi
Dew Point: 14°   Wind: 16mph
Humidity: 65%   Direction: 70°ENE
Pressure: 29.92"   Gusts: NA
Location:  42.79°N, 83.63°W
Report Text: KFNT 251553Z 07014KT 10SM OVC023 M04/M10 A2992 RMK AO2 SLP142 T10441100
Loading
Personal Weather Stations






























Interactive Weather Map New forecast layout! Learn more

10-Day Weather Forecast

Advertisements
Track Severe Weather on mobile